sensor_id;sensor_type;location;lat;lon;timestamp;pressure;altitude;pressure_sealevel;temperature;humidity
10946;BME280;5525;42.648;23.368;2023-02-18T00:02:20;95435.53;;;3.71;100.00
10946;BME280;5525;42.648;23.368;2023-02-18T00:04:48;95439.50;;;3.64;100.00
10946;BME280;5525;42.648;23.368;2023-02-18T00:07:15;95432.28;;;3.59;100.00
10946;BME280;5525;42.648;23.368;2023-02-18T00:09:41;95433.88;;;3.60;100.00
10946;BME280;5525;42.648;23.368;2023-02-18T00:12:08;95422.38;;;3.49;100.00
10946;BME280;5525;42.648;23.368;2023-02-18T00:14:35;95425.28;;;3.38;100.00
10946;BME280;5525;42.648;23.368;2023-02-18T00:17:01;95417.22;;;3.33;100.00
10946;BME280;5525;42.648;23.368;2023-02-18T00:19:28;95413.75;;;3.32;100.00
10946;BME280;5525;42.648;23.368;2023-02-18T00:21:56;95406.25;;;3.29;100.00
10946;BME280;5525;42.648;23.368;2023-02-18T00:24:23;95381.13;;;3.10;100.00
10946;BME280;5525;42.648;23.368;2023-02-18T00:26:50;95403.34;;;3.31;100.00
10946;BME280;5525;42.648;23.368;2023-02-18T00:29:18;95392.41;;;3.27;100.00
10946;BME280;5525;42.648;23.368;2023-02-18T00:31:45;95392.59;;;3.16;100.00
10946;BME280;5525;42.648;23.368;2023-02-18T00:34:12;95385.88;;;3.03;100.00
10946;BME280;5525;42.648;23.368;2023-02-18T00:36:39;95386.38;;;3.00;100.00
10946;BME280;5525;42.648;23.368;2023-02-18T00:39:09;95376.72;;;2.89;100.00
10946;BME280;5525;42.648;23.368;2023-02-18T00:41:37;95382.25;;;2.78;100.00
10946;BME280;5525;42.648;23.368;2023-02-18T00:44:04;95367.31;;;2.77;100.00
10946;BME280;5525;42.648;23.368;2023-02-18T00:46:32;95376.97;;;2.83;100.00
10946;BME280;5525;42.648;23.368;2023-02-18T00:48:59;95383.13;;;2.88;100.00
10946;BME280;5525;42.648;23.368;2023-02-18T00:51:26;95388.22;;;2.95;100.00
10946;BME280;5525;42.648;23.368;2023-02-18T00:53:53;95371.84;;;2.76;100.00
10946;BME280;5525;42.648;23.368;2023-02-18T00:56:21;95378.00;;;2.82;100.00
10946;BME280;5525;42.648;23.368;2023-02-18T00:58:48;95385.91;;;2.67;100.00
10946;BME280;5525;42.648;23.368;2023-02-18T01:01:15;95369.16;;;2.71;100.00
10946;BME280;5525;42.648;23.368;2023-02-18T01:03:42;95375.72;;;2.59;100.00
10946;BME280;5525;42.648;23.368;2023-02-18T01:06:10;95374.66;;;2.55;100.00
10946;BME280;5525;42.648;23.368;2023-02-18T01:08:38;95374.91;;;2.53;100.00
10946;BME280;5525;42.648;23.368;2023-02-18T01:11:07;95391.94;;;2.47;100.00
10946;BME280;5525;42.648;23.368;2023-02-18T01:13:36;95373.25;;;2.47;100.00
10946;BME280;5525;42.648;23.368;2023-02-18T01:16:02;95387.41;;;2.53;100.00
10946;BME280;5525;42.648;23.368;2023-02-18T01:18:30;95378.34;;;2.54;100.00
10946;BME280;5525;42.648;23.368;2023-02-18T01:20:58;95375.50;;;2.65;100.00
10946;BME280;5525;42.648;23.368;2023-02-18T01:23:25;95384.44;;;2.49;100.00
10946;BME280;5525;42.648;23.368;2023-02-18T01:25:53;95386.22;;;2.34;100.00
10946;BME280;5525;42.648;23.368;2023-02-18T01:28:20;95372.94;;;2.39;100.00
10946;BME280;5525;42.648;23.368;2023-02-18T01:30:51;95377.78;;;2.47;100.00
10946;BME280;5525;42.648;23.368;2023-02-18T01:33:18;95375.22;;;2.57;100.00
10946;BME280;5525;42.648;23.368;2023-02-18T01:35:45;95368.28;;;2.61;100.00
10946;BME280;5525;42.648;23.368;2023-02-18T01:38:12;95374.69;;;2.65;100.00
10946;BME280;5525;42.648;23.368;2023-02-18T01:40:45;95363.00;;;2.66;100.00
10946;BME280;5525;42.648;23.368;2023-02-18T01:43:14;95368.91;;;2.73;100.00
10946;BME280;5525;42.648;23.368;2023-02-18T01:45:58;95371.00;;;2.71;100.00
10946;BME280;5525;42.648;23.368;2023-02-18T01:48:28;95378.50;;;2.74;100.00
10946;BME280;5525;42.648;23.368;2023-02-18T01:51:00;95381.63;;;2.61;100.00
10946;BME280;5525;42.648;23.368;2023-02-18T01:53:30;95382.94;;;2.58;100.00
10946;BME280;5525;42.648;23.368;2023-02-18T01:55:59;95387.88;;;2.45;100.00
10946;BME280;5525;42.648;23.368;2023-02-18T01:58:28;95391.06;;;2.42;100.00
10946;BME280;5525;42.648;23.368;2023-02-18T02:00:57;95388.38;;;2.37;100.00
10946;BME280;5525;42.648;23.368;2023-02-18T02:03:23;95395.63;;;2.41;100.00
10946;BME280;5525;42.648;23.368;2023-02-18T02:05:50;95396.91;;;2.39;100.00
10946;BME280;5525;42.648;23.368;2023-02-18T02:08:17;95399.91;;;2.47;100.00
10946;BME280;5525;42.648;23.368;2023-02-18T02:11:07;95374.44;;;2.66;100.00
10946;BME280;5525;42.648;23.368;2023-02-18T02:13:50;95372.34;;;2.68;100.00
10946;BME280;5525;42.648;23.368;2023-02-18T02:16:29;95372.22;;;2.95;100.00
10946;BME280;5525;42.648;23.368;2023-02-18T02:19:09;95369.31;;;2.55;100.00
10946;BME280;5525;42.648;23.368;2023-02-18T02:22:05;95374.94;;;2.58;100.00
10946;BME280;5525;42.648;23.368;2023-02-18T02:24:58;95369.22;;;2.45;100.00
10946;BME280;5525;42.648;23.368;2023-02-18T02:27:38;95384.75;;;2.53;100.00
10946;BME280;5525;42.648;23.368;2023-02-18T02:36:12;95368.91;;;2.73;100.00
10946;BME280;5525;42.648;23.368;2023-02-18T02:38:44;95369.22;;;2.86;100.00
10946;BME280;5525;42.648;23.368;2023-02-18T02:41:29;95353.56;;;3.00;100.00
10946;BME280;5525;42.648;23.368;2023-02-18T02:44:08;95357.63;;;3.07;100.00
10946;BME280;5525;42.648;23.368;2023-02-18T02:46:40;95357.13;;;3.20;100.00
10946;BME280;5525;42.648;23.368;2023-02-18T02:49:16;95342.97;;;3.15;100.00
10946;BME280;5525;42.648;23.368;2023-02-18T02:51:50;95342.19;;;3.24;100.00
10946;BME280;5525;42.648;23.368;2023-02-18T02:54:22;95342.78;;;3.36;100.00
10946;BME280;5525;42.648;23.368;2023-02-18T02:56:49;95349.16;;;3.35;100.00
10946;BME280;5525;42.648;23.368;2023-02-18T02:59:21;95347.34;;;3.51;100.00
10946;BME280;5525;42.648;23.368;2023-02-18T03:02:07;95351.38;;;3.54;100.00
10946;BME280;5525;42.648;23.368;2023-02-18T03:04:56;95360.28;;;3.07;100.00
10946;BME280;5525;42.648;23.368;2023-02-18T03:07:40;95362.16;;;3.07;100.00
10946;BME280;5525;42.648;23.368;2023-02-18T03:10:30;95362.19;;;3.12;100.00
10946;BME280;5525;42.648;23.368;2023-02-18T03:13:06;95365.69;;;3.22;100.00
10946;BME280;5525;42.648;23.368;2023-02-18T03:15:38;95361.72;;;3.30;100.00
10946;BME280;5525;42.648;23.368;2023-02-18T03:18:17;95363.03;;;3.32;100.00
10946;BME280;5525;42.648;23.368;2023-02-18T03:20:52;95352.63;;;3.31;100.00
10946;BME280;5525;42.648;23.368;2023-02-18T03:23:26;95364.69;;;3.43;100.00
10946;BME280;5525;42.648;23.368;2023-02-18T03:25:54;95378.00;;;3.38;100.00
10946;BME280;5525;42.648;23.368;2023-02-18T03:28:25;95387.00;;;3.17;100.00
10946;BME280;5525;42.648;23.368;2023-02-18T03:30:59;95390.91;;;2.95;100.00
10946;BME280;5525;42.648;23.368;2023-02-18T03:33:36;95403.03;;;2.76;100.00
10946;BME280;5525;42.648;23.368;2023-02-18T03:36:06;95410.53;;;2.79;100.00
10946;BME280;5525;42.648;23.368;2023-02-18T03:38:38;95415.28;;;2.72;100.00
10946;BME280;5525;42.648;23.368;2023-02-18T03:41:06;95410.78;;;2.77;100.00
10946;BME280;5525;42.648;23.368;2023-02-18T03:43:32;95418.00;;;2.82;100.00
10946;BME280;5525;42.648;23.368;2023-02-18T03:45:59;95408.88;;;2.73;100.00
10946;BME280;5525;42.648;23.368;2023-02-18T03:48:27;95420.13;;;2.80;100.00
10946;BME280;5525;42.648;23.368;2023-02-18T03:50:53;95428.41;;;2.83;100.00
10946;BME280;5525;42.648;23.368;2023-02-18T03:53:20;95427.91;;;2.50;100.00
10946;BME280;5525;42.648;23.368;2023-02-18T03:55:48;95430.53;;;2.45;100.00
10946;BME280;5525;42.648;23.368;2023-02-18T03:58:15;95432.16;;;2.46;100.00
10946;BME280;5525;42.648;23.368;2023-02-18T04:00:42;95431.56;;;2.39;100.00
10946;BME280;5525;42.648;23.368;2023-02-18T04:03:08;95424.50;;;2.23;100.00
10946;BME280;5525;42.648;23.368;2023-02-18T04:05:35;95413.66;;;2.34;100.00
10946;BME280;5525;42.648;23.368;2023-02-18T04:08:02;95408.44;;;2.44;100.00
10946;BME280;5525;42.648;23.368;2023-02-18T04:10:30;95408.69;;;2.43;100.00
10946;BME280;5525;42.648;23.368;2023-02-18T04:12:58;95395.13;;;2.49;100.00
10946;BME280;5525;42.648;23.368;2023-02-18T04:15:25;95392.31;;;2.66;100.00
10946;BME280;5525;42.648;23.368;2023-02-18T04:17:52;95399.91;;;2.47;100.00
10946;BME280;5525;42.648;23.368;2023-02-18T04:20:19;95394.41;;;2.59;100.00
10946;BME280;5525;42.648;23.368;2023-02-18T04:22:47;95395.47;;;2.58;100.00
10946;BME280;5525;42.648;23.368;2023-02-18T04:25:13;95384.78;;;2.58;100.00
10946;BME280;5525;42.648;23.368;2023-02-18T04:27:40;95382.91;;;2.53;100.00
10946;BME280;5525;42.648;23.368;2023-02-18T04:30:09;95375.00;;;2.68;100.00
10946;BME280;5525;42.648;23.368;2023-02-18T04:32:36;95372.03;;;2.60;100.00
10946;BME280;5525;42.648;23.368;2023-02-18T04:35:04;95380.53;;;2.62;100.00
10946;BME280;5525;42.648;23.368;2023-02-18T04:37:31;95377.34;;;2.60;100.00
10946;BME280;5525;42.648;23.368;2023-02-18T04:39:58;95369.44;;;2.75;100.00
10946;BME280;5525;42.648;23.368;2023-02-18T04:42:24;95363.41;;;2.94;100.00
10946;BME280;5525;42.648;23.368;2023-02-18T04:44:51;95368.28;;;3.07;100.00
10946;BME280;5525;42.648;23.368;2023-02-18T04:47:19;95376.81;;;3.09;100.00
10946;BME280;5525;42.648;23.368;2023-02-18T04:49:46;95380.59;;;3.13;100.00
10946;BME280;5525;42.648;23.368;2023-02-18T04:52:13;95383.16;;;2.93;100.00
10946;BME280;5525;42.648;23.368;2023-02-18T04:54:39;95391.22;;;2.62;100.00
10946;BME280;5525;42.648;23.368;2023-02-18T04:57:06;95394.69;;;2.62;100.00
10946;BME280;5525;42.648;23.368;2023-02-18T04:59:33;95395.34;;;2.43;100.00
10946;BME280;5525;42.648;23.368;2023-02-18T05:01:59;95407.09;;;2.47;100.00
10946;BME280;5525;42.648;23.368;2023-02-18T05:04:28;95401.00;;;2.51;100.00
10946;BME280;5525;42.648;23.368;2023-02-18T05:06:54;95405.88;;;2.59;100.00
10946;BME280;5525;42.648;23.368;2023-02-18T05:09:22;95415.41;;;2.55;100.00
10946;BME280;5525;42.648;23.368;2023-02-18T05:11:49;95408.06;;;2.72;100.00
10946;BME280;5525;42.648;23.368;2023-02-18T05:14:16;95415.53;;;2.70;100.00
10946;BME280;5525;42.648;23.368;2023-02-18T05:16:43;95405.41;;;2.72;100.00
10946;BME280;5525;42.648;23.368;2023-02-18T05:19:12;95403.00;;;2.66;100.00
10946;BME280;5525;42.648;23.368;2023-02-18T05:21:41;95390.16;;;2.63;100.00
10946;BME280;5525;42.648;23.368;2023-02-18T05:24:08;95404.06;;;2.70;100.00
10946;BME280;5525;42.648;23.368;2023-02-18T05:26:35;95402.94;;;2.61;100.00
10946;BME280;5525;42.648;23.368;2023-02-18T05:29:03;95405.34;;;2.62;100.00
10946;BME280;5525;42.648;23.368;2023-02-18T05:31:30;95386.66;;;2.57;100.00
10946;BME280;5525;42.648;23.368;2023-02-18T05:33:56;95383.50;;;2.65;100.00
10946;BME280;5525;42.648;23.368;2023-02-18T05:36:24;95384.16;;;2.82;100.00
10946;BME280;5525;42.648;23.368;2023-02-18T05:38:53;95387.94;;;2.91;100.00
10946;BME280;5525;42.648;23.368;2023-02-18T05:41:20;95366.84;;;2.90;100.00
10946;BME280;5525;42.648;23.368;2023-02-18T05:43:47;95394.34;;;2.95;100.00
10946;BME280;5525;42.648;23.368;2023-02-18T05:46:31;95395.22;;;3.11;100.00
10946;BME280;5525;42.648;23.368;2023-02-18T05:48:58;95389.13;;;3.15;100.00
10946;BME280;5525;42.648;23.368;2023-02-18T05:51:25;95388.59;;;3.13;100.00
10946;BME280;5525;42.648;23.368;2023-02-18T05:53:53;95386.19;;;3.17;100.00
10946;BME280;5525;42.648;23.368;2023-02-18T05:56:20;95405.00;;;3.42;100.00
10946;BME280;5525;42.648;23.368;2023-02-18T05:58:46;95413.56;;;3.54;100.00
10946;BME280;5525;42.648;23.368;2023-02-18T06:01:13;95409.31;;;3.63;100.00
10946;BME280;5525;42.648;23.368;2023-02-18T06:03:40;95413.38;;;3.76;100.00
10946;BME280;5525;42.648;23.368;2023-02-18T06:06:07;95414.78;;;3.93;100.00
10946;BME280;5525;42.648;23.368;2023-02-18T06:08:34;95429.75;;;3.99;100.00
10946;BME280;5525;42.648;23.368;2023-02-18T06:11:02;95416.69;;;4.18;100.00
10946;BME280;5525;42.648;23.368;2023-02-18T06:13:29;95409.75;;;4.42;100.00
10946;BME280;5525;42.648;23.368;2023-02-18T06:15:56;95408.13;;;4.66;99.66
10946;BME280;5525;42.648;23.368;2023-02-18T06:18:23;95400.38;;;4.64;98.63
10946;BME280;5525;42.648;23.368;2023-02-18T06:20:49;95401.69;;;4.92;95.55
10946;BME280;5525;42.648;23.368;2023-02-18T06:23:16;95411.00;;;5.14;93.90
10946;BME280;5525;42.648;23.368;2023-02-18T06:25:43;95396.53;;;5.20;91.55
10946;BME280;5525;42.648;23.368;2023-02-18T06:28:11;95396.19;;;5.37;90.75
10946;BME280;5525;42.648;23.368;2023-02-18T06:30:37;95402.59;;;5.46;89.86
10946;BME280;5525;42.648;23.368;2023-02-18T06:33:04;95396.88;;;5.73;90.06
10946;BME280;5525;42.648;23.368;2023-02-18T06:35:31;95385.13;;;5.59;87.53
10946;BME280;5525;42.648;23.368;2023-02-18T06:37:57;95391.47;;;5.78;88.58
10946;BME280;5525;42.648;23.368;2023-02-18T06:40:24;95384.22;;;5.88;85.71
10946;BME280;5525;42.648;23.368;2023-02-18T06:42:51;95378.03;;;5.93;84.51
10946;BME280;5525;42.648;23.368;2023-02-18T06:45:19;95391.16;;;5.94;83.67
10946;BME280;5525;42.648;23.368;2023-02-18T06:47:47;95391.34;;;6.08;83.10
10946;BME280;5525;42.648;23.368;2023-02-18T06:50:13;95389.63;;;6.22;82.94
10946;BME280;5525;42.648;23.368;2023-02-18T06:52:40;95388.66;;;6.46;80.99
10946;BME280;5525;42.648;23.368;2023-02-18T06:55:07;95377.19;;;6.69;80.64
10946;BME280;5525;42.648;23.368;2023-02-18T06:57:34;95375.50;;;6.78;79.21
10946;BME280;5525;42.648;23.368;2023-02-18T07:00:01;95375.41;;;7.12;75.90
10946;BME280;5525;42.648;23.368;2023-02-18T07:02:29;95392.22;;;7.23;74.25
10946;BME280;5525;42.648;23.368;2023-02-18T07:04:56;95384.03;;;7.38;72.29
10946;BME280;5525;42.648;23.368;2023-02-18T07:07:23;95383.38;;;7.22;71.94
10946;BME280;5525;42.648;23.368;2023-02-18T07:09:50;95386.63;;;7.43;71.08
10946;BME280;5525;42.648;23.368;2023-02-18T07:12:17;95381.34;;;7.38;69.58
10946;BME280;5525;42.648;23.368;2023-02-18T07:14:45;95382.44;;;7.55;69.47
10946;BME280;5525;42.648;23.368;2023-02-18T07:17:12;95387.88;;;7.74;69.45
10946;BME280;5525;42.648;23.368;2023-02-18T07:19:40;95374.50;;;7.87;66.51
10946;BME280;5525;42.648;23.368;2023-02-18T07:22:07;95383.06;;;7.71;67.25
10946;BME280;5525;42.648;23.368;2023-02-18T07:24:34;95373.34;;;7.93;65.99
10946;BME280;5525;42.648;23.368;2023-02-18T07:27:00;95372.56;;;7.93;64.25
10946;BME280;5525;42.648;23.368;2023-02-18T07:29:27;95372.72;;;8.01;63.74
10946;BME280;5525;42.648;23.368;2023-02-18T07:31:54;95371.34;;;7.85;64.41
10946;BME280;5525;42.648;23.368;2023-02-18T07:34:21;95372.41;;;7.84;65.37
10946;BME280;5525;42.648;23.368;2023-02-18T07:36:50;95382.16;;;7.99;65.99
10946;BME280;5525;42.648;23.368;2023-02-18T07:39:16;95384.88;;;8.17;64.83
10946;BME280;5525;42.648;23.368;2023-02-18T07:41:45;95386.31;;;8.10;63.36
10946;BME280;5525;42.648;23.368;2023-02-18T07:44:12;95385.00;;;8.07;64.06
10946;BME280;5525;42.648;23.368;2023-02-18T07:46:39;95398.19;;;8.27;63.50
10946;BME280;5525;42.648;23.368;2023-02-18T07:49:06;95394.22;;;8.76;62.33
10946;BME280;5525;42.648;23.368;2023-02-18T07:51:33;95405.34;;;9.01;60.41
10946;BME280;5525;42.648;23.368;2023-02-18T07:54:01;95400.41;;;9.22;60.09
10946;BME280;5525;42.648;23.368;2023-02-18T07:56:28;95406.25;;;9.10;58.72
10946;BME280;5525;42.648;23.368;2023-02-18T07:58:54;95412.47;;;8.79;58.86
10946;BME280;5525;42.648;23.368;2023-02-18T08:01:21;95406.72;;;8.34;60.56
10946;BME280;5525;42.648;23.368;2023-02-18T08:03:48;95396.44;;;9.19;58.44
10946;BME280;5525;42.648;23.368;2023-02-18T08:06:20;95397.66;;;9.54;57.38
10946;BME280;5525;42.648;23.368;2023-02-18T08:08:48;95388.97;;;9.84;56.68
10946;BME280;5525;42.648;23.368;2023-02-18T08:11:16;95389.28;;;9.82;56.29
10946;BME280;5525;42.648;23.368;2023-02-18T08:13:43;95397.91;;;10.20;54.39
10946;BME280;5525;42.648;23.368;2023-02-18T08:16:10;95395.94;;;10.12;54.54
10946;BME280;5525;42.648;23.368;2023-02-18T08:18:37;95386.97;;;9.76;54.75
10946;BME280;5525;42.648;23.368;2023-02-18T08:21:04;95376.13;;;10.52;52.60
10946;BME280;5525;42.648;23.368;2023-02-18T08:23:31;95373.88;;;10.90;51.73
10946;BME280;5525;42.648;23.368;2023-02-18T08:25:57;95366.13;;;11.27;49.98
10946;BME280;5525;42.648;23.368;2023-02-18T08:28:26;95377.69;;;11.50;49.32
10946;BME280;5525;42.648;23.368;2023-02-18T08:30:54;95374.34;;;11.83;48.93
10946;BME280;5525;42.648;23.368;2023-02-18T08:33:21;95369.28;;;11.99;47.71
10946;BME280;5525;42.648;23.368;2023-02-18T08:35:49;95378.56;;;11.67;48.36
10946;BME280;5525;42.648;23.368;2023-02-18T08:38:16;95354.28;;;11.76;48.99
10946;BME280;5525;42.648;23.368;2023-02-18T08:40:44;95369.22;;;11.73;48.28
10946;BME280;5525;42.648;23.368;2023-02-18T08:43:11;95360.06;;;11.61;47.61
10946;BME280;5525;42.648;23.368;2023-02-18T08:45:40;95360.53;;;11.54;47.27
10946;BME280;5525;42.648;23.368;2023-02-18T08:48:08;95355.38;;;11.36;46.87
10946;BME280;5525;42.648;23.368;2023-02-18T08:50:35;95364.66;;;11.52;47.24
10946;BME280;5525;42.648;23.368;2023-02-18T08:53:02;95362.38;;;11.76;46.61
10946;BME280;5525;42.648;23.368;2023-02-18T08:55:29;95368.44;;;11.90;46.25
10946;BME280;5525;42.648;23.368;2023-02-18T08:57:56;95366.03;;;11.71;46.84
10946;BME280;5525;42.648;23.368;2023-02-18T09:00:23;95366.19;;;11.75;46.13
10946;BME280;5525;42.648;23.368;2023-02-18T09:02:51;95366.91;;;12.06;45.91
10946;BME280;5525;42.648;23.368;2023-02-18T09:05:17;95363.28;;;12.53;44.79
10946;BME280;5525;42.648;23.368;2023-02-18T09:07:44;95368.22;;;12.77;43.84
10946;BME280;5525;42.648;23.368;2023-02-18T09:10:11;95366.75;;;13.13;43.05
10946;BME280;5525;42.648;23.368;2023-02-18T09:12:38;95364.81;;;13.31;42.21
10946;BME280;5525;42.648;23.368;2023-02-18T09:15:05;95372.53;;;12.69;43.24
10946;BME280;5525;42.648;23.368;2023-02-18T09:17:33;95373.16;;;12.75;42.74
10946;BME280;5525;42.648;23.368;2023-02-18T09:20:01;95374.28;;;12.91;42.76
10946;BME280;5525;42.648;23.368;2023-02-18T09:22:33;95373.31;;;13.04;43.03
10946;BME280;5525;42.648;23.368;2023-02-18T09:25:00;95371.34;;;13.38;42.19
10946;BME280;5525;42.648;23.368;2023-02-18T09:27:26;95362.59;;;13.33;42.01
10946;BME280;5525;42.648;23.368;2023-02-18T09:29:53;95374.25;;;12.23;43.92
10946;BME280;5525;42.648;23.368;2023-02-18T09:32:20;95367.25;;;13.15;43.51
10946;BME280;5525;42.648;23.368;2023-02-18T09:34:47;95352.06;;;13.31;42.92
10946;BME280;5525;42.648;23.368;2023-02-18T09:37:15;95341.25;;;13.14;42.87
10946;BME280;5525;42.648;23.368;2023-02-18T09:39:41;95340.41;;;13.31;42.40
10946;BME280;5525;42.648;23.368;2023-02-18T09:42:13;95348.22;;;13.24;42.21
10946;BME280;5525;42.648;23.368;2023-02-18T09:44:44;95334.19;;;13.30;42.10
10946;BME280;5525;42.648;23.368;2023-02-18T09:47:15;95341.03;;;13.74;41.11
10946;BME280;5525;42.648;23.368;2023-02-18T09:49:47;95345.41;;;14.16;40.59
10946;BME280;5525;42.648;23.368;2023-02-18T09:52:19;95345.53;;;14.49;39.82
10946;BME280;5525;42.648;23.368;2023-02-18T09:54:48;95343.47;;;14.46;39.25
10946;BME280;5525;42.648;23.368;2023-02-18T09:57:22;95344.75;;;14.19;39.08
10946;BME280;5525;42.648;23.368;2023-02-18T09:59:56;95350.84;;;14.16;39.65
10946;BME280;5525;42.648;23.368;2023-02-18T10:02:24;95346.59;;;14.36;39.37
10946;BME280;5525;42.648;23.368;2023-02-18T10:04:51;95320.53;;;14.55;38.79
10946;BME280;5525;42.648;23.368;2023-02-18T10:07:23;95326.22;;;14.62;38.58
10946;BME280;5525;42.648;23.368;2023-02-18T10:09:52;95331.06;;;13.87;39.93
10946;BME280;5525;42.648;23.368;2023-02-18T10:12:21;95326.97;;;14.30;39.71
10946;BME280;5525;42.648;23.368;2023-02-18T10:14:50;95320.44;;;15.17;38.28
10946;BME280;5525;42.648;23.368;2023-02-18T10:17:20;95311.50;;;18.25;34.06
10946;BME280;5525;42.648;23.368;2023-02-18T10:19:47;95316.38;;;22.56;28.79
10946;BME280;5525;42.648;23.368;2023-02-18T10:22:16;95338.56;;;26.44;23.72
10946;BME280;5525;42.648;23.368;2023-02-18T10:24:48;95332.69;;;27.20;21.17
10946;BME280;5525;42.648;23.368;2023-02-18T10:27:21;95325.69;;;27.42;20.93
10946;BME280;5525;42.648;23.368;2023-02-18T10:29:50;95327.38;;;28.46;19.70
10946;BME280;5525;42.648;23.368;2023-02-18T10:32:21;95328.13;;;30.61;17.61
10946;BME280;5525;42.648;23.368;2023-02-18T10:34:52;95313.38;;;28.76;18.78
10946;BME280;5525;42.648;23.368;2023-02-18T10:37:49;95319.28;;;25.72;20.76
10946;BME280;5525;42.648;23.368;2023-02-18T10:40:24;95324.63;;;26.51;20.47
10946;BME280;5525;42.648;23.368;2023-02-18T10:43:03;95315.13;;;26.96;20.41
10946;BME280;5525;42.648;23.368;2023-02-18T10:45:37;95304.06;;;29.28;18.34
10946;BME280;5525;42.648;23.368;2023-02-18T10:51:05;95290.75;;;28.97;18.17
10946;BME280;5525;42.648;23.368;2023-02-18T10:53:40;95279.00;;;29.68;17.76
10946;BME280;5525;42.648;23.368;2023-02-18T10:56:31;95281.16;;;30.12;17.53
10946;BME280;5525;42.648;23.368;2023-02-18T10:59:01;95278.19;;;32.06;16.10
10946;BME280;5525;42.648;23.368;2023-02-18T11:01:30;95281.78;;;33.90;14.73
10946;BME280;5525;42.648;23.368;2023-02-18T11:04:06;95276.31;;;34.26;14.63
10946;BME280;5525;42.648;23.368;2023-02-18T11:06:38;95274.84;;;32.49;15.03
10946;BME280;5525;42.648;23.368;2023-02-18T11:09:05;95267.06;;;27.96;17.87
10946;BME280;5525;42.648;23.368;2023-02-18T11:11:37;95262.13;;;24.16;21.04
10946;BME280;5525;42.648;23.368;2023-02-18T11:14:06;95263.28;;;23.76;21.55
10946;BME280;5525;42.648;23.368;2023-02-18T11:16:37;95240.69;;;25.66;20.55
10946;BME280;5525;42.648;23.368;2023-02-18T11:19:31;95244.31;;;28.05;18.41
10946;BME280;5525;42.648;23.368;2023-02-18T11:22:07;95233.91;;;26.62;19.37
10946;BME280;5525;42.648;23.368;2023-02-18T11:24:37;95219.03;;;24.64;20.73
10946;BME280;5525;42.648;23.368;2023-02-18T11:27:09;95219.50;;;23.33;21.88
10946;BME280;5525;42.648;23.368;2023-02-18T11:29:37;95206.22;;;22.49;22.92
10946;BME280;5525;42.648;23.368;2023-02-18T11:32:10;95209.94;;;22.91;23.04
10946;BME280;5525;42.648;23.368;2023-02-18T11:34:41;95207.72;;;23.92;21.89
10946;BME280;5525;42.648;23.368;2023-02-18T11:37:11;95203.41;;;23.91;21.90
10946;BME280;5525;42.648;23.368;2023-02-18T11:39:43;95192.50;;;24.98;20.87
10946;BME280;5525;42.648;23.368;2023-02-18T11:42:14;95189.38;;;26.46;19.50
10946;BME280;5525;42.648;23.368;2023-02-18T11:44:48;95185.38;;;26.13;19.56
10946;BME280;5525;42.648;23.368;2023-02-18T11:47:23;95175.63;;;26.73;19.24
10946;BME280;5525;42.648;23.368;2023-02-18T11:50:00;95173.03;;;27.19;18.98
10946;BME280;5525;42.648;23.368;2023-02-18T11:52:32;95183.66;;;26.60;19.41
10946;BME280;5525;42.648;23.368;2023-02-18T11:55:02;95176.91;;;27.25;18.27
10946;BME280;5525;42.648;23.368;2023-02-18T11:57:31;95168.09;;;27.03;18.53
10946;BME280;5525;42.648;23.368;2023-02-18T11:59:59;95157.94;;;25.82;18.96
10946;BME280;5525;42.648;23.368;2023-02-18T12:02:31;95159.28;;;25.63;19.31
10946;BME280;5525;42.648;23.368;2023-02-18T12:05:02;95157.44;;;26.34;18.90
10946;BME280;5525;42.648;23.368;2023-02-18T12:07:32;95141.00;;;25.76;19.14
10946;BME280;5525;42.648;23.368;2023-02-18T12:10:11;95142.66;;;25.70;19.82
10946;BME280;5525;42.648;23.368;2023-02-18T12:12:44;95131.09;;;26.57;18.86
10946;BME280;5525;42.648;23.368;2023-02-18T12:15:16;95131.56;;;27.12;18.39
10946;BME280;5525;42.648;23.368;2023-02-18T12:18:00;95120.66;;;26.34;19.04
10946;BME280;5525;42.648;23.368;2023-02-18T12:20:57;95119.41;;;25.06;20.09
10946;BME280;5525;42.648;23.368;2023-02-18T12:23:33;95121.94;;;26.63;18.75
10946;BME280;5525;42.648;23.368;2023-02-18T12:26:09;95115.13;;;25.97;19.77
10946;BME280;5525;42.648;23.368;2023-02-18T12:28:54;95112.56;;;22.28;22.71
10946;BME280;5525;42.648;23.368;2023-02-18T12:34:36;95107.69;;;20.55;25.04
10946;BME280;5525;42.648;23.368;2023-02-18T12:37:15;95099.13;;;20.64;25.27
10946;BME280;5525;42.648;23.368;2023-02-18T12:40:00;95101.34;;;21.31;24.82
10946;BME280;5525;42.648;23.368;2023-02-18T12:42:48;95095.00;;;21.24;25.03
10946;BME280;5525;42.648;23.368;2023-02-18T12:45:36;95087.41;;;21.03;25.36
10946;BME280;5525;42.648;23.368;2023-02-18T12:48:30;95082.28;;;21.02;25.61
10946;BME280;5525;42.648;23.368;2023-02-18T12:51:12;95075.81;;;20.84;25.65
10946;BME280;5525;42.648;23.368;2023-02-18T12:53:55;95076.56;;;20.41;26.25
10946;BME280;5525;42.648;23.368;2023-02-18T12:56:50;95073.38;;;20.05;26.24
10946;BME280;5525;42.648;23.368;2023-02-18T12:59:44;95081.75;;;20.89;25.97
10946;BME280;5525;42.648;23.368;2023-02-18T13:02:37;95083.09;;;21.06;25.54
10946;BME280;5525;42.648;23.368;2023-02-18T13:05:13;95084.19;;;20.21;25.71
10946;BME280;5525;42.648;23.368;2023-02-18T13:07:56;95069.94;;;19.53;26.57
10946;BME280;5525;42.648;23.368;2023-02-18T13:13:23;95077.72;;;19.77;26.50
10946;BME280;5525;42.648;23.368;2023-02-18T13:15:54;95076.13;;;19.24;27.59
10946;BME280;5525;42.648;23.368;2023-02-18T13:18:29;95070.97;;;18.70;27.85
10946;BME280;5525;42.648;23.368;2023-02-18T13:21:00;95061.13;;;18.24;28.31
10946;BME280;5525;42.648;23.368;2023-02-18T13:23:31;95066.47;;;18.59;28.19
10946;BME280;5525;42.648;23.368;2023-02-18T13:26:01;95070.31;;;18.54;28.22
10946;BME280;5525;42.648;23.368;2023-02-18T13:28:33;95073.34;;;18.49;28.18
10946;BME280;5525;42.648;23.368;2023-02-18T13:31:12;95069.25;;;18.39;28.48
10946;BME280;5525;42.648;23.368;2023-02-18T13:33:49;95076.19;;;17.95;28.80
10946;BME280;5525;42.648;23.368;2023-02-18T13:36:30;95078.81;;;17.73;29.44